createdAt,value
2023-08-17T00:01:04.314Z,102189.78
2023-08-17T00:03:30.820Z,102188.09
2023-08-17T00:05:57.279Z,102192.59
2023-08-17T00:08:23.713Z,102187.38
2023-08-17T00:10:50.777Z,102186.44
2023-08-17T00:13:17.181Z,102179.38
2023-08-17T00:15:46.202Z,102180.34
2023-08-17T00:18:13.173Z,102181.66
2023-08-17T00:20:40.718Z,102178.56
2023-08-17T00:23:07.192Z,102184.88
2023-08-17T00:25:33.645Z,102173.81
2023-08-17T00:28:00.077Z,102183.06
2023-08-17T00:30:26.503Z,102184.19
2023-08-17T00:32:53.039Z,102188.97
2023-08-17T00:35:19.524Z,102189.25
2023-08-17T00:37:46.001Z,102180.00
2023-08-17T00:40:12.852Z,102182.13
2023-08-17T00:42:39.258Z,102178.75
2023-08-17T00:45:06.183Z,102180.03
2023-08-17T00:47:32.932Z,102169.38
2023-08-17T00:50:00.417Z,102170.34
2023-08-17T00:52:27.131Z,102177.38
2023-08-17T00:54:53.832Z,102168.53
2023-08-17T00:57:20.985Z,102180.03
2023-08-17T00:59:59.379Z,102169.66
2023-08-17T01:02:30.105Z,102171.31
2023-08-17T01:04:56.633Z,102168.66
2023-08-17T01:07:23.237Z,102168.81
2023-08-17T01:09:49.861Z,102176.94
2023-08-17T01:12:16.770Z,102171.63
2023-08-17T01:15:02.732Z,102173.44
2023-08-17T01:17:48.914Z,102181.16
2023-08-17T01:20:17.040Z,102177.38
2023-08-17T01:22:46.718Z,102169.50
2023-08-17T01:25:13.167Z,102163.22
2023-08-17T01:27:42.242Z,102164.06
2023-08-17T01:30:10.528Z,102166.56
2023-08-17T01:32:48.611Z,102169.38
2023-08-17T01:35:33.722Z,102160.56
2023-08-17T01:38:06.728Z,102164.06
2023-08-17T01:40:34.414Z,102155.34
2023-08-17T01:43:03.131Z,102152.66
2023-08-17T01:45:29.574Z,102163.34
2023-08-17T01:47:57.063Z,102166.28
2023-08-17T01:50:23.544Z,102158.44
2023-08-17T01:52:52.188Z,102158.44
2023-08-17T01:55:18.837Z,102162.94
2023-08-17T01:57:45.230Z,102163.91
2023-08-17T02:00:12.203Z,102154.22
2023-08-17T02:02:38.881Z,102155.91
2023-08-17T02:05:05.840Z,102153.53
2023-08-17T02:07:32.261Z,102149.47
2023-08-17T02:09:58.724Z,102156.06
2023-08-17T02:12:25.191Z,102154.81
2023-08-17T02:14:51.732Z,102153.69
2023-08-17T02:17:19.924Z,102156.09
2023-08-17T02:19:48.430Z,102162.94
2023-08-17T02:22:15.439Z,102166.03
2023-08-17T02:24:42.034Z,102167.84
2023-08-17T02:27:10.517Z,102161.53
2023-08-17T02:29:36.982Z,102157.88
2023-08-17T02:32:03.561Z,102160.41
2023-08-17T02:34:30.024Z,102152.31
2023-08-17T02:36:56.519Z,102148.66
2023-08-17T02:39:23.044Z,102148.66
2023-08-17T02:41:50.523Z,102150.34
2023-08-17T02:44:16.981Z,102153.69
2023-08-17T02:46:43.456Z,102144.72
2023-08-17T02:49:09.961Z,102141.09
2023-08-17T02:51:36.371Z,102134.06
2023-08-17T02:54:03.075Z,102138.44
2023-08-17T02:56:29.557Z,102137.44
2023-08-17T02:58:56.007Z,102134.78
2023-08-17T03:01:22.479Z,102136.72
2023-08-17T03:03:48.974Z,102137.72
2023-08-17T03:06:15.360Z,102139.38
2023-08-17T03:08:41.782Z,102144.72
2023-08-17T03:11:10.659Z,102138.53
2023-08-17T03:13:37.248Z,102137.59
2023-08-17T03:16:03.803Z,102141.09
2023-08-17T03:18:30.232Z,102144.44
2023-08-17T03:20:56.678Z,102147.09
2023-08-17T03:23:23.079Z,102142.78
2023-08-17T03:25:55.388Z,102142.78
2023-08-17T03:28:21.849Z,102135.78
2023-08-17T03:30:48.340Z,102130.44
2023-08-17T03:33:14.786Z,102127.06
2023-08-17T03:35:41.222Z,102130.44
2023-08-17T03:38:07.654Z,102127.91
2023-08-17T03:40:34.032Z,102131.41
2023-08-17T03:43:00.426Z,102134.06
2023-08-17T03:45:26.900Z,102127.34
2023-08-17T03:47:53.341Z,102136.19
2023-08-17T03:50:19.878Z,102129.03
2023-08-17T03:52:46.360Z,102132.69
2023-08-17T03:55:12.746Z,102122.03
2023-08-17T03:57:39.941Z,102127.34
2023-08-17T04:00:07.998Z,102129.19
2023-08-17T04:02:34.522Z,102121.19
2023-08-17T04:05:01.041Z,102124.00
2023-08-17T04:07:27.976Z,102131.00
2023-08-17T04:09:54.789Z,102131.84
2023-08-17T04:12:21.285Z,102131.84
2023-08-17T04:14:47.808Z,102130.00
2023-08-17T04:17:14.183Z,102136.31
2023-08-17T04:19:40.755Z,102125.78
2023-08-17T04:22:07.265Z,102131.84
2023-08-17T04:24:33.647Z,102128.34
2023-08-17T04:27:00.106Z,102127.34
2023-08-17T04:29:26.688Z,102130.00
2023-08-17T04:31:53.393Z,102126.22
2023-08-17T04:34:19.810Z,102129.88
2023-08-17T04:36:46.213Z,102124.69
2023-08-17T04:39:12.779Z,102122.03
2023-08-17T04:41:39.906Z,102116.69
2023-08-17T04:44:06.575Z,102126.38
2023-08-17T04:46:33.052Z,102120.06
2023-08-17T04:48:59.483Z,102112.75
2023-08-17T04:51:25.870Z,102120.47
2023-08-17T04:53:52.922Z,102120.47
2023-08-17T04:56:19.497Z,102119.50
2023-08-17T04:58:45.891Z,102121.16
2023-08-17T05:01:12.401Z,102124.56
2023-08-17T05:03:39.033Z,102121.75
2023-08-17T05:06:05.552Z,102120.59
2023-08-17T05:08:31.918Z,102115.00
2023-08-17T05:10:58.459Z,102112.19
2023-08-17T05:13:24.994Z,102114.72
2023-08-17T05:15:51.533Z,102115.97
2023-08-17T05:18:18.028Z,102110.22
2023-08-17T05:20:44.582Z,102110.78
2023-08-17T05:23:10.995Z,102102.34
2023-08-17T05:25:37.424Z,102111.72
2023-08-17T05:28:04.095Z,102115.78
2023-08-17T05:30:30.570Z,102121.53
2023-08-17T05:32:57.037Z,102114.34
2023-08-17T05:35:23.473Z,102117.97
2023-08-17T05:37:50.752Z,102118.25
2023-08-17T05:40:17.221Z,102111.03
2023-08-17T05:42:43.654Z,102116.91
2023-08-17T05:45:10.311Z,102120.06
2023-08-17T05:47:36.789Z,102112.16
2023-08-17T05:50:03.388Z,102114.63
2023-08-17T05:52:29.798Z,102116.53
2023-08-17T05:54:56.239Z,102120.16
2023-08-17T05:57:23.433Z,102116.97
2023-08-17T05:59:50.047Z,102127.19
2023-08-17T06:02:16.548Z,102125.88
2023-08-17T06:04:43.244Z,102135.72
2023-08-17T06:07:09.774Z,102133.72
2023-08-17T06:09:36.174Z,102141.16
2023-08-17T06:12:02.677Z,102138.53
2023-08-17T06:14:29.157Z,102144.06
2023-08-17T06:16:55.946Z,102152.97
2023-08-17T06:19:22.558Z,102152.56
2023-08-17T06:21:49.013Z,102156.91
2023-08-17T06:24:15.473Z,102157.88
2023-08-17T06:26:42.596Z,102152.84
2023-08-17T06:29:09.020Z,102152.94
2023-08-17T06:31:35.497Z,102150.66
2023-08-17T06:34:02.147Z,102159.06
2023-08-17T06:36:32.620Z,102159.22
2023-08-17T06:38:59.227Z,102158.34
2023-08-17T06:41:26.044Z,102161.34
2023-08-17T06:43:52.561Z,102156.31
2023-08-17T06:46:19.135Z,102168.34
2023-08-17T06:48:45.801Z,102155.56
2023-08-17T06:51:12.207Z,102156.16
2023-08-17T06:53:38.714Z,102156.25
2023-08-17T06:56:05.341Z,102151.31
2023-08-17T06:58:31.753Z,102162.69
2023-08-17T07:00:58.154Z,102152.69
2023-08-17T07:03:24.605Z,102162.38
2023-08-17T07:05:51.104Z,102161.38
2023-08-17T07:08:18.054Z,102159.41
2023-08-17T07:10:44.633Z,102168.94
2023-08-17T07:13:11.085Z,102166.13
2023-08-17T07:15:37.530Z,102156.28
2023-08-17T07:18:04.229Z,102166.44
2023-08-17T07:20:30.701Z,102152.31
2023-08-17T07:22:57.925Z,102161.38
2023-08-17T07:25:24.354Z,102166.41
2023-08-17T07:27:51.081Z,102156.66
2023-08-17T07:30:17.574Z,102159.81
2023-08-17T07:32:44.176Z,102157.66
2023-08-17T07:35:13.406Z,102159.78
2023-08-17T07:37:39.809Z,102153.75
2023-08-17T07:40:07.047Z,102155.41
2023-08-17T07:42:33.624Z,102151.25
2023-08-17T07:45:00.274Z,102154.63
2023-08-17T07:47:27.251Z,102149.88
2023-08-17T07:49:54.055Z,102153.97
2023-08-17T07:52:20.498Z,102152.06
2023-08-17T07:54:46.988Z,102162.16
2023-08-17T07:57:13.429Z,102155.84
2023-08-17T07:59:39.886Z,102158.66
2023-08-17T08:02:06.462Z,102166.97
2023-08-17T08:04:32.933Z,102168.91
2023-08-17T08:06:59.476Z,102164.84
2023-08-17T08:09:25.998Z,102163.66
2023-08-17T08:11:52.524Z,102160.69
2023-08-17T08:14:19.027Z,102149.34
2023-08-17T08:16:45.564Z,102152.94
2023-08-17T08:19:12.054Z,102151.38
2023-08-17T08:21:38.448Z,102156.88
2023-08-17T08:24:08.125Z,102153.88
2023-08-17T08:26:37.408Z,102163.84
2023-08-17T08:29:04.036Z,102155.22
2023-08-17T08:31:30.490Z,102156.31
2023-08-17T08:33:56.975Z,102154.38
2023-08-17T08:36:23.462Z,102153.91
2023-08-17T08:38:49.980Z,102159.66
2023-08-17T08:41:16.515Z,102154.38
2023-08-17T08:43:43.259Z,102156.53
2023-08-17T08:46:10.824Z,102163.69
2023-08-17T08:48:40.497Z,102162.88
2023-08-17T08:51:11.298Z,102158.91
2023-08-17T08:53:46.410Z,102152.38
2023-08-17T08:56:13.925Z,102151.53
2023-08-17T08:58:41.611Z,102154.00
2023-08-17T09:01:11.047Z,102148.69
2023-08-17T09:03:38.012Z,102154.75
2023-08-17T09:06:05.647Z,102145.94
2023-08-17T09:08:32.188Z,102133.75
2023-08-17T09:10:58.827Z,102131.09
2023-08-17T09:13:25.404Z,102139.56
2023-08-17T09:15:51.882Z,102147.09
2023-08-17T09:18:18.989Z,102139.19
2023-08-17T09:20:48.711Z,102124.75
2023-08-17T09:23:18.290Z,102132.28
2023-08-17T09:25:45.853Z,102128.47
2023-08-17T09:28:15.618Z,102131.63
2023-08-17T09:30:56.458Z,102125.28
2023-08-17T09:33:24.563Z,102123.94
2023-08-17T09:38:24.810Z,102120.88
2023-08-17T09:40:51.383Z,102128.66
2023-08-17T09:43:19.158Z,102120.28
2023-08-17T09:45:50.991Z,102118.06
2023-08-17T09:48:18.863Z,102123.53
2023-08-17T09:50:46.894Z,102118.69
2023-08-17T09:53:15.097Z,102104.94
2023-08-17T09:55:43.588Z,102108.03
2023-08-17T09:58:10.420Z,102102.50
2023-08-17T10:00:39.208Z,102113.25
2023-08-17T10:03:08.278Z,102112.47
2023-08-17T10:05:41.026Z,102107.81
2023-08-17T10:08:09.067Z,102106.81
2023-08-17T10:10:36.896Z,102105.78
2023-08-17T10:13:32.061Z,102103.09
2023-08-17T10:16:06.880Z,102101.16
2023-08-17T10:18:50.575Z,102091.56
2023-08-17T10:21:29.960Z,102090.59
2023-08-17T10:23:58.208Z,102090.88
2023-08-17T10:26:28.481Z,102091.25
2023-08-17T10:28:59.882Z,102097.63
2023-08-17T10:31:27.597Z,102093.19
2023-08-17T10:33:54.691Z,102084.00
2023-08-17T10:36:22.030Z,102082.81
2023-08-17T10:38:48.424Z,102085.31
2023-08-17T10:41:18.784Z,102091.34
2023-08-17T10:43:59.594Z,102085.97
2023-08-17T10:46:37.598Z,102096.06
2023-08-17T10:49:06.548Z,102095.34
2023-08-17T10:51:33.989Z,102097.06
2023-08-17T10:54:04.477Z,102098.41
2023-08-17T10:56:31.415Z,102097.91
2023-08-17T10:59:03.038Z,102097.56
2023-08-17T11:01:34.118Z,102101.00
2023-08-17T11:04:16.853Z,102085.19
2023-08-17T11:06:46.446Z,102093.50
2023-08-17T11:09:17.117Z,102080.06
2023-08-17T11:11:43.561Z,102087.81
2023-08-17T11:14:10.084Z,102077.44
2023-08-17T11:16:36.617Z,102084.06
2023-08-17T11:19:03.208Z,102084.28
2023-08-17T11:21:29.679Z,102088.94
2023-08-17T11:23:57.576Z,102085.25
2023-08-17T11:26:24.723Z,102081.13
2023-08-17T11:28:51.440Z,102087.66
2023-08-17T11:31:17.908Z,102086.31
2023-08-17T11:33:44.449Z,102083.66
2023-08-17T11:36:11.187Z,102083.72
2023-08-17T11:38:42.997Z,102093.38
2023-08-17T11:41:10.215Z,102089.03
2023-08-17T11:43:37.661Z,102088.59
2023-08-17T11:46:04.945Z,102080.53
2023-08-17T11:51:01.739Z,102074.88
2023-08-17T11:53:34.656Z,102078.69
2023-08-17T11:56:04.752Z,102073.84
2023-08-17T11:58:44.747Z,102070.50
2023-08-17T12:01:12.967Z,102079.16
2023-08-17T12:03:41.105Z,102079.28
2023-08-17T12:06:08.052Z,102071.00
2023-08-17T12:08:35.402Z,102076.09
2023-08-17T12:11:03.704Z,102083.59
2023-08-17T12:13:36.807Z,102078.28
2023-08-17T12:16:04.709Z,102077.97
2023-08-17T12:18:35.128Z,102065.06
2023-08-17T12:21:02.227Z,102080.31
2023-08-17T12:23:29.356Z,102078.31
2023-08-17T12:25:56.579Z,102079.47
2023-08-17T12:28:24.611Z,102073.09
2023-08-17T12:31:01.893Z,102072.59
2023-08-17T12:33:28.848Z,102068.53
2023-08-17T12:35:56.405Z,102073.81
2023-08-17T12:38:25.448Z,102074.13
2023-08-17T12:40:52.077Z,102076.16
2023-08-17T12:43:18.556Z,102074.06
2023-08-17T12:45:44.948Z,102074.44
2023-08-17T12:48:11.672Z,102077.44
2023-08-17T12:50:43.314Z,102083.88
2023-08-17T12:53:10.573Z,102085.03
2023-08-17T12:55:37.091Z,102072.63
2023-08-17T12:58:03.644Z,102078.50
2023-08-17T13:00:30.152Z,102088.91
2023-08-17T13:02:56.613Z,102088.56
2023-08-17T13:05:23.102Z,102078.53
2023-08-17T13:07:49.509Z,102083.03
2023-08-17T13:10:16.049Z,102076.13
2023-08-17T13:12:42.446Z,102078.59
2023-08-17T13:15:09.015Z,102081.94
2023-08-17T13:17:35.522Z,102077.28
2023-08-17T13:20:02.242Z,102075.47
2023-08-17T13:22:29.071Z,102072.63
2023-08-17T13:24:55.809Z,102080.66
2023-08-17T13:27:22.247Z,102077.97
2023-08-17T13:29:48.860Z,102075.97
2023-08-17T13:32:15.348Z,102076.94
2023-08-17T13:34:41.796Z,102083.34
2023-08-17T13:37:08.255Z,102082.03
2023-08-17T13:39:34.765Z,102076.03
2023-08-17T13:42:01.200Z,102074.16
2023-08-17T13:44:27.679Z,102072.59
2023-08-17T13:46:54.145Z,102065.06
2023-08-17T13:49:20.634Z,102061.19
2023-08-17T13:51:47.072Z,102060.84
2023-08-17T13:54:13.504Z,102062.50
2023-08-17T13:56:39.933Z,102059.47
2023-08-17T13:59:06.379Z,102058.59
2023-08-17T14:01:32.934Z,102058.34
2023-08-17T14:03:59.698Z,102044.59
2023-08-17T14:06:26.186Z,102049.97
2023-08-17T14:08:52.686Z,102043.25
2023-08-17T14:11:19.062Z,102042.94
2023-08-17T14:13:45.450Z,102045.16
2023-08-17T14:16:11.892Z,102044.41
2023-08-17T14:18:38.303Z,102039.03
2023-08-17T14:21:04.687Z,102041.34
2023-08-17T14:23:31.105Z,102045.88
2023-08-17T14:25:57.541Z,102043.44
2023-08-17T14:28:23.998Z,102047.84
2023-08-17T14:30:53.214Z,102050.22
2023-08-17T14:33:20.123Z,102041.03
2023-08-17T14:35:46.665Z,102044.22
2023-08-17T14:38:14.556Z,102034.31
2023-08-17T14:40:45.380Z,102034.31
2023-08-17T14:43:15.649Z,102032.69
2023-08-17T14:45:43.142Z,102022.69
2023-08-17T14:48:09.832Z,102026.50
2023-08-17T14:50:37.209Z,102022.19
2023-08-17T14:53:07.368Z,102026.78
2023-08-17T14:55:34.846Z,102025.28
2023-08-17T14:58:04.125Z,102025.91
2023-08-17T15:00:33.970Z,102025.78
2023-08-17T15:03:01.582Z,102023.59
2023-08-17T15:05:29.143Z,102021.25
2023-08-17T15:07:55.960Z,102016.59
2023-08-17T15:10:22.495Z,102019.09
2023-08-17T15:12:49.888Z,102015.78
2023-08-17T15:15:20.704Z,102015.50
2023-08-17T15:17:47.801Z,102007.28
2023-08-17T15:20:14.486Z,101994.81
2023-08-17T15:22:40.866Z,101997.56
2023-08-17T15:25:07.505Z,101985.59
2023-08-17T15:27:34.141Z,101986.56
2023-08-17T15:30:00.696Z,101982.03
2023-08-17T15:32:27.330Z,101986.63
2023-08-17T15:34:56.393Z,101978.38
2023-08-17T15:37:23.530Z,101980.19
2023-08-17T15:39:51.033Z,101984.00
2023-08-17T15:42:17.443Z,101978.06
2023-08-17T15:44:44.183Z,101985.66
2023-08-17T15:47:10.559Z,101987.59
2023-08-17T15:49:36.972Z,101985.06
2023-08-17T15:52:05.870Z,101979.56
2023-08-17T15:54:36.950Z,101988.31
2023-08-17T15:57:05.755Z,101992.41
2023-08-17T15:59:32.580Z,101997.19
2023-08-17T16:01:59.145Z,101986.03
2023-08-17T16:04:25.638Z,101996.59
2023-08-17T16:06:52.182Z,101991.94
2023-08-17T16:09:18.617Z,101987.31
2023-08-17T16:11:45.038Z,101988.34
2023-08-17T16:14:11.510Z,101985.66
2023-08-17T16:16:37.996Z,101980.63
2023-08-17T16:19:05.056Z,101984.63
2023-08-17T16:21:31.966Z,101977.59
2023-08-17T16:23:58.524Z,101974.59
2023-08-17T16:26:24.961Z,101967.53
2023-08-17T16:28:51.733Z,101964.03
2023-08-17T16:31:18.285Z,101972.91
2023-08-17T16:33:44.830Z,101960.88
2023-08-17T16:36:11.508Z,101961.19
2023-08-17T16:38:38.064Z,101967.91
2023-08-17T16:41:04.605Z,101967.22
2023-08-17T16:43:31.053Z,101964.22
2023-08-17T16:45:57.611Z,101960.88
2023-08-17T16:48:25.316Z,101969.06
2023-08-17T16:50:52.327Z,101969.25
2023-08-17T16:53:18.851Z,101964.06
2023-08-17T16:55:53.816Z,101963.53
2023-08-17T16:58:21.385Z,101961.53
2023-08-17T17:00:47.851Z,101962.84
2023-08-17T17:03:14.313Z,101962.84
2023-08-17T17:05:40.758Z,101955.84
2023-08-17T17:08:07.333Z,101945.47
2023-08-17T17:10:33.956Z,101955.34
2023-08-17T17:13:00.465Z,101962.84
2023-08-17T17:15:27.097Z,101961.34
2023-08-17T17:17:53.668Z,101966.06
2023-08-17T17:20:20.151Z,101961.66
2023-08-17T17:22:46.551Z,101956.66
2023-08-17T17:25:13.035Z,101953.47
2023-08-17T17:27:40.765Z,101955.47
2023-08-17T17:30:07.901Z,101944.94
2023-08-17T17:32:34.453Z,101953.28
2023-08-17T17:35:00.887Z,101949.47
2023-08-17T17:37:27.493Z,101944.44
2023-08-17T17:39:54.188Z,101934.75
2023-08-17T17:42:20.760Z,101934.75
2023-08-17T17:44:47.190Z,101939.44
2023-08-17T17:47:13.576Z,101943.09
2023-08-17T17:49:40.030Z,101942.09
2023-08-17T17:52:06.605Z,101951.78
2023-08-17T17:54:33.024Z,101951.13
2023-08-17T17:56:59.496Z,101950.44
2023-08-17T17:59:26.122Z,101945.44
2023-08-17T18:01:52.532Z,101945.44
2023-08-17T18:04:19.037Z,101940.41
2023-08-17T18:06:45.485Z,101938.72
2023-08-17T18:09:11.860Z,101935.34
2023-08-17T18:11:38.299Z,101942.72
2023-08-17T18:14:07.619Z,101950.03
2023-08-17T18:16:34.127Z,101947.53
2023-08-17T18:19:00.593Z,101948.72
2023-08-17T18:21:31.035Z,101950.69
2023-08-17T18:24:00.984Z,101954.38
2023-08-17T18:26:28.149Z,101952.69
2023-08-17T18:28:56.489Z,101959.88
2023-08-17T18:31:23.144Z,101956.38
2023-08-17T18:33:49.734Z,101959.06
2023-08-17T18:36:16.738Z,101967.06
2023-08-17T18:38:43.490Z,101960.06
2023-08-17T18:41:10.767Z,101963.75
2023-08-17T18:43:37.679Z,101965.56
2023-08-17T18:46:05.003Z,101974.75
2023-08-17T18:48:32.200Z,101985.25
2023-08-17T18:50:59.086Z,101978.41
2023-08-17T18:53:25.641Z,101976.91
2023-08-17T18:55:52.185Z,101986.44
2023-08-17T18:58:19.485Z,101980.09
2023-08-17T19:00:46.300Z,101981.75
2023-08-17T19:03:13.035Z,101978.41
2023-08-17T19:05:40.463Z,101986.59
2023-08-17T19:08:07.468Z,101991.13
2023-08-17T19:10:34.186Z,101985.78
2023-08-17T19:13:00.833Z,101992.13
2023-08-17T19:15:27.653Z,101982.41
2023-08-17T19:17:54.114Z,101983.91
2023-08-17T19:20:20.743Z,101985.75
2023-08-17T19:22:47.408Z,101986.56
2023-08-17T19:25:14.087Z,101992.06
2023-08-17T19:27:41.336Z,101992.06
2023-08-17T19:30:11.375Z,101990.41
2023-08-17T19:32:41.421Z,101996.75
2023-08-17T19:35:08.416Z,101985.03
2023-08-17T19:37:35.785Z,101991.41
2023-08-17T19:40:04.192Z,101995.91
2023-08-17T19:42:31.297Z,101995.91
2023-08-17T19:44:57.775Z,101984.38
2023-08-17T19:47:24.401Z,101984.53
2023-08-17T19:49:50.967Z,101993.56
2023-08-17T19:52:17.760Z,101993.56
2023-08-17T19:54:48.288Z,101992.03
2023-08-17T19:57:14.936Z,101991.03
2023-08-17T19:59:41.323Z,101991.03
2023-08-17T20:02:07.891Z,101980.34
2023-08-17T20:04:34.493Z,101989.38
2023-08-17T20:07:01.019Z,101992.38
2023-08-17T20:09:27.572Z,101993.03
2023-08-17T20:11:54.165Z,101988.88
2023-08-17T20:14:23.129Z,101994.72
2023-08-17T20:16:50.055Z,101997.38
2023-08-17T20:19:16.758Z,101994.72
2023-08-17T20:21:43.366Z,102009.44
2023-08-17T20:24:10.746Z,102002.41
2023-08-17T20:26:38.853Z,102006.75
2023-08-17T20:29:05.384Z,102015.44
2023-08-17T20:31:31.952Z,102007.44
2023-08-17T20:33:58.836Z,102010.94
2023-08-17T20:36:25.549Z,102008.09
2023-08-17T20:38:53.070Z,102003.75
2023-08-17T20:41:21.015Z,102009.09
2023-08-17T20:43:47.881Z,102006.44
2023-08-17T20:46:14.769Z,102007.28
2023-08-17T20:48:41.373Z,102019.13
2023-08-17T20:51:08.706Z,102018.13
2023-08-17T20:53:36.065Z,102013.78
2023-08-17T20:56:02.501Z,102024.47
2023-08-17T20:58:29.103Z,102020.81
2023-08-17T21:00:55.670Z,102017.13
2023-08-17T21:03:22.267Z,102034.84
2023-08-17T21:05:49.170Z,102017.66
2023-08-17T21:08:15.861Z,102024.97
2023-08-17T21:10:43.355Z,102026.97
2023-08-17T21:13:09.857Z,102028.16
2023-08-17T21:15:36.290Z,102020.13
2023-08-17T21:18:03.158Z,102018.47
2023-08-17T21:20:31.361Z,102015.78
2023-08-17T21:22:57.884Z,102010.56
2023-08-17T21:25:24.382Z,102007.91
2023-08-17T21:27:50.788Z,102005.41
2023-08-17T21:30:17.320Z,102004.56
2023-08-17T21:32:43.848Z,102010.75
2023-08-17T21:35:12.773Z,102016.09
2023-08-17T21:37:41.384Z,102004.91
2023-08-17T21:40:08.410Z,102001.69
2023-08-17T21:42:34.845Z,102001.03
2023-08-17T21:45:01.235Z,101999.34
2023-08-17T21:47:27.992Z,102004.16
2023-08-17T21:49:54.617Z,101996.31
2023-08-17T21:52:21.327Z,102004.63
2023-08-17T21:54:51.116Z,101997.78
2023-08-17T21:57:18.752Z,101998.94
2023-08-17T21:59:45.332Z,101999.06
2023-08-17T22:02:11.816Z,101995.91
2023-08-17T22:04:38.234Z,102008.59
2023-08-17T22:07:04.945Z,102006.06
2023-08-17T22:09:34.247Z,101999.19
2023-08-17T22:12:00.832Z,101990.66
2023-08-17T22:14:29.568Z,101998.00
2023-08-17T22:16:57.244Z,101997.16
2023-08-17T22:19:24.257Z,101991.28
2023-08-17T22:21:50.718Z,102001.13
2023-08-17T22:24:17.135Z,101988.94
2023-08-17T22:26:43.651Z,101991.94
2023-08-17T22:29:10.142Z,101996.41
2023-08-17T22:31:36.723Z,101997.41
2023-08-17T22:34:03.208Z,101999.25
2023-08-17T22:36:29.772Z,101991.41
2023-08-17T22:38:56.214Z,102006.59
2023-08-17T22:41:22.681Z,101985.47
2023-08-17T22:43:49.464Z,101988.66
2023-08-17T22:46:15.897Z,101977.25
2023-08-17T22:48:43.011Z,101982.59
2023-08-17T22:51:10.411Z,101979.94
2023-08-17T22:53:37.338Z,101987.25
2023-08-17T22:56:03.981Z,101975.75
2023-08-17T22:58:30.445Z,101977.59
2023-08-17T23:00:57.442Z,101966.22
2023-08-17T23:03:23.966Z,101964.56
2023-08-17T23:05:50.485Z,101978.88
2023-08-17T23:08:16.956Z,101966.53
2023-08-17T23:10:43.354Z,101975.53
2023-08-17T23:13:10.143Z,101966.03
2023-08-17T23:15:36.603Z,101959.84
2023-08-17T23:18:03.165Z,101967.16
2023-08-17T23:20:29.743Z,101962.81
2023-08-17T23:22:56.271Z,101969.16
2023-08-17T23:25:22.735Z,101963.13
2023-08-17T23:27:49.183Z,101962.13
2023-08-17T23:30:15.695Z,101955.13
2023-08-17T23:32:42.640Z,101956.13
2023-08-17T23:35:09.630Z,101956.41
2023-08-17T23:37:35.999Z,101959.91
2023-08-17T23:40:02.643Z,101953.75
2023-08-17T23:42:29.080Z,101960.25
2023-08-17T23:44:55.556Z,101956.03
2023-08-17T23:47:22.021Z,101954.38
2023-08-17T23:49:48.430Z,101952.69
2023-08-17T23:52:14.857Z,101958.03
2023-08-17T23:54:41.327Z,101947.66
2023-08-17T23:57:08.486Z,101960.31
2023-08-17T23:59:35.383Z,101957.81
